Airfield :
LOGIN :

Register | Disclaimer

   EN    FR    IT 

 










Legend :    VFR   Marginal VFR   IFR   Intensive IFR   Very Intensive IFR
Visi :
Ceiling :
>= 8 km
>= 3000ft
5 to 8 km
1000 to 3000 ft
1500m to 5 km
500 to 1000 ft
800 to 1500m
200 to 500 ft
< 800m
< 200 ft
Symbols :   Thunderstorms  Fog  Heavy snow  Heavy precipitations  Wind > 20 kt
SIGMETs :     Misc.  Thunderstorms  Icing  Turbulence  Mountain Waves  Volcanic Ashes






- Airport Elevation : 255 ft


ENGC - Gullfaks C oil platform

CURRENT METAR :
  • 240550Z 29034KT 9999 VCSH FEW020TCU SCT025 06/00 Q1007 W06/S6

EXPIRED METARs :
  • 240520Z 28034KT 9999 VCSH FEW020TCU BKN025 BKN080 06/00 Q1007 W06/S6
  • 240350Z 29029KT 9999 VCSH FEW020TCU BKN025 05/02 Q1008 W06/S6

TAF TAF ENGC
Valid from the 24 at 06:00 until the 25 at 06:00 UTC


2406/2506 28035KT 9999 -SHRA FEW015TCU BKN025
TEMPO 2406/2502 SHRA BKN012CB
BECMG 2423/2501 24022KT
TEMPO 2502/2506 BKN012
BECMG 2503/2506 22035KT



MET'MAP, your aeronautical weather chart ! - Copyright ORBIFLY December 2007 - Disclaimer

ORBIFLY MET'MAP TEAM :

Programming & Development : Alexandra Zaïnal
Concept & original design : Baudouin d'Aumeries
Assistance for programming : Marc-Olivier Méhu
Technical & hardware support : Manuel Goepfert

Contact : metmap@orbifly.com




SOURCES & CREDITS :

   NOAA